Time;durP1;ratioP1;P1;durP2;ratioP2;P2;SDS_P1;SDS_P2;PMS_P1;PMS_P2;Temp;Humidity;BMP_temperature;BMP_pressure;BME280_temperature;BME280_humidity;BME280_pressure;Samples;Min_cycle;Max_cycle;Signal;HPM_P1;HPM_P2
2021/04/12 00:00:22;;;;;;;3.50;0.95;;;2.00;99.90;;;;;;5086207;28;20048;-67
2021/04/12 00:02:55;;;;;;;4.22;1.10;;;1.90;99.90;;;;;;5090063;28;20036;-66
2021/04/12 00:05:42;;;;;;;5.13;1.27;;;1.90;99.90;;;;;;5090530;28;20048;-66
2021/04/12 00:08:20;;;;;;;5.38;2.25;;;1.90;99.90;;;;;;5092492;28;20047;-66
2021/04/12 00:11:03;;;;;;;4.82;1.45;;;1.90;99.90;;;;;;5092365;28;20397;-66
2021/04/12 00:13:40;;;;;;;4.28;1.00;;;1.80;99.90;;;;;;5089846;28;20039;-66
2021/04/12 00:16:13;;;;;;;9.82;2.10;;;1.80;99.90;;;;;;5090106;28;20040;-65
2021/04/12 00:18:49;;;;;;;5.15;1.05;;;1.80;99.90;;;;;;5089256;28;20082;-66
2021/04/12 00:21:27;;;;;;;8.23;1.77;;;1.80;99.90;;;;;;5089911;28;20494;-66
2021/04/12 00:24:00;;;;;;;3.88;1.40;;;1.70;99.90;;;;;;5090790;28;20036;-66
2021/04/12 00:26:32;;;;;;;5.35;1.30;;;1.70;99.90;;;;;;5090646;28;20036;-66
2021/04/12 00:29:05;;;;;;;5.53;1.08;;;1.70;99.90;;;;;;5091156;28;20756;-66
2021/04/12 00:31:38;;;;;;;7.30;1.75;;;1.60;99.90;;;;;;5091393;28;20044;-66
2021/04/12 00:34:09;;;;;;;7.60;1.70;;;1.60;99.90;;;;;;5092504;28;20048;-66
2021/04/12 00:36:47;;;;;;;6.50;1.50;;;1.60;99.90;;;;;;5092713;28;20040;-66
2021/04/12 00:39:36;;;;;;;6.47;1.65;;;1.60;99.90;;;;;;5094186;28;20101;-66
2021/04/12 00:42:22;;;;;;;6.68;1.38;;;1.60;99.90;;;;;;5093180;28;20047;-66
2021/04/12 00:45:34;;;;;;;5.20;1.27;;;1.60;99.90;;;;;;5048146;28;20047;-67
2021/04/12 00:48:43;;;;;;;10.00;1.80;;;1.60;99.90;;;;;;5087975;28;20044;-67
2021/04/12 00:51:35;;;;;;;6.00;1.55;;;1.50;99.90;;;;;;5042094;28;20049;-67
2021/04/12 00:54:38;;;;;;;4.97;1.50;;;1.60;99.90;;;;;;5088926;28;20093;-67
2021/04/12 00:57:20;;;;;;;3.20;1.48;;;1.50;99.90;;;;;;5104130;28;20067;-67
2021/04/12 01:00:17;;;;;;;6.38;2.00;;;1.50;99.90;;;;;;5082445;28;20024;-67
2021/04/12 01:02:51;;;;;;;7.00;1.60;;;1.50;99.90;;;;;;5088524;28;20036;-66
2021/04/12 01:05:35;;;;;;;6.30;1.52;;;1.60;99.90;;;;;;5092069;28;20048;-67
2021/04/12 01:08:35;;;;;;;5.20;1.38;;;1.60;99.90;;;;;;5094182;28;20047;-66
2021/04/12 01:11:23;;;;;;;6.00;1.52;;;1.60;99.90;;;;;;5093852;28;20047;-66
2021/04/12 01:14:15;;;;;;;6.47;1.98;;;1.60;99.90;;;;;;5092655;28;20035;-67
2021/04/12 01:17:05;;;;;;;5.18;1.55;;;1.60;99.90;;;;;;5090571;28;20048;-67
2021/04/12 01:20:01;;;;;;;7.32;1.58;;;1.60;99.90;;;;;;5090935;28;20068;-67
2021/04/12 01:23:04;;;;;;;7.72;1.58;;;1.60;99.90;;;;;;5092575;28;20037;-67
2021/04/12 01:26:09;;;;;;;8.00;1.35;;;1.60;99.90;;;;;;5090087;28;20044;-66
2021/04/12 01:29:11;;;;;;;3.78;1.00;;;1.60;99.90;;;;;;5089000;28;20047;-67
2021/04/12 01:31:59;;;;;;;4.63;1.40;;;1.60;99.90;;;;;;5091911;28;20052;-67
2021/04/12 01:34:58;;;;;;;3.47;1.17;;;1.60;99.90;;;;;;5089444;28;20044;-67
2021/04/12 01:37:51;;;;;;;9.77;1.30;;;1.60;99.90;;;;;;5091449;28;20036;-67
2021/04/12 01:40:24;;;;;;;3.22;1.55;;;1.60;99.90;;;;;;5091975;28;20036;-66
2021/04/12 01:43:02;;;;;;;8.90;1.90;;;1.50;99.90;;;;;;5091688;28;20040;-66
2021/04/12 01:45:50;;;;;;;4.97;1.20;;;1.60;99.90;;;;;;5089436;28;20055;-66
2021/04/12 01:48:18;;;;;;;4.15;1.15;;;1.40;99.90;;;;;;5090010;28;20066;-66
2021/04/12 01:51:21;;;;;;;7.50;1.45;;;1.60;99.90;;;;;;5091246;28;20514;-67
2021/04/12 01:54:05;;;;;;;5.15;1.10;;;1.60;99.90;;;;;;5089184;28;20048;-66
2021/04/12 01:57:05;;;;;;;3.72;1.23;;;1.50;99.90;;;;;;5089888;28;20242;-67
2021/04/12 02:00:14;;;;;;;5.50;1.73;;;1.50;99.90;;;;;;5086955;28;20462;-66
2021/04/12 02:03:01;;;;;;;4.07;1.10;;;1.50;99.90;;;;;;5067838;28;20040;-67
2021/04/12 02:05:56;;;;;;;9.57;1.70;;;1.40;99.90;;;;;;5090932;28;20036;-67
2021/04/12 02:08:34;;;;;;;6.57;1.13;;;1.40;99.90;;;;;;5088782;28;20501;-66
2021/04/12 02:11:08;;;;;;;4.85;1.30;;;1.30;99.90;;;;;;5088516;28;20036;-66
2021/04/12 02:14:04;;;;;;;3.67;0.90;;;1.30;99.90;;;;;;5091677;28;20039;-66
2021/04/12 02:16:52;;;;;;;5.90;1.50;;;1.30;99.90;;;;;;5090677;28;20055;-67
2021/04/12 02:19:53;;;;;;;5.68;1.10;;;1.30;99.90;;;;;;5087246;28;20306;-67
2021/04/12 02:22:39;;;;;;;4.57;0.95;;;1.30;99.90;;;;;;5089665;28;20040;-67
2021/04/12 02:25:33;;;;;;;5.22;1.23;;;1.40;99.90;;;;;;5089128;28;20054;-67
2021/04/12 02:28:16;;;;;;;3.00;1.17;;;1.30;99.90;;;;;;5090856;28;20036;-68
2021/04/12 02:30:50;;;;;;;4.82;1.45;;;1.30;99.90;;;;;;5088110;28;20054;-67
2021/04/12 02:33:35;;;;;;;4.88;1.33;;;1.40;99.90;;;;;;5087286;28;20086;-67
2021/04/12 02:36:14;;;;;;;6.32;1.58;;;1.30;99.90;;;;;;5091160;28;20043;-67
2021/04/12 02:38:46;;;;;;;4.80;1.23;;;1.30;99.90;;;;;;5088542;28;20040;-67
2021/04/12 02:41:51;;;;;;;4.30;1.42;;;1.20;99.90;;;;;;5088347;28;20165;-67
2021/04/12 02:44:23;;;;;;;6.60;2.20;;;1.30;99.90;;;;;;5089114;28;20060;-66
2021/04/12 02:47:15;;;;;;;10.60;1.75;;;1.30;99.90;;;;;;5089262;28;20039;-66
2021/04/12 02:50:06;;;;;;;3.95;0.95;;;1.20;99.90;;;;;;5088382;28;20131;-66
2021/04/12 02:53:16;;;;;;;5.03;1.15;;;1.30;99.90;;;;;;5088713;28;20075;-66
2021/04/12 02:56:13;;;;;;;3.40;0.63;;;1.20;99.90;;;;;;5086707;28;20151;-66
2021/04/12 02:59:22;;;;;;;5.95;0.85;;;1.20;99.90;;;;;;5087899;28;20070;-66
2021/04/12 03:02:27;;;;;;;5.15;0.90;;;1.20;99.90;;;;;;5065417;28;20230;-66
2021/04/12 03:05:28;;;;;;;4.07;0.80;;;1.20;99.90;;;;;;5089178;28;20032;-66
2021/04/12 03:08:18;;;;;;;4.82;1.40;;;1.20;99.90;;;;;;5086866;28;20529;-66
2021/04/12 03:11:02;;;;;;;6.57;1.52;;;1.10;99.90;;;;;;5089640;28;20493;-66
2021/04/12 03:13:52;;;;;;;9.30;1.75;;;1.10;99.90;;;;;;5090154;28;20044;-66
2021/04/12 03:16:45;;;;;;;3.90;1.35;;;1.10;99.90;;;;;;5088820;28;20036;-66
2021/04/12 03:19:34;;;;;;;5.47;0.82;;;1.00;99.90;;;;;;5088181;28;20036;-66
2021/04/12 03:22:22;;;;;;;2.42;0.93;;;1.00;99.90;;;;;;5087907;28;20035;-65
2021/04/12 03:25:26;;;;;;;8.43;1.10;;;1.00;99.90;;;;;;5090493;28;20040;-66
2021/04/12 03:28:29;;;;;;;5.00;1.17;;;1.10;99.90;;;;;;5066468;28;20046;-66
2021/04/12 03:31:02;;;;;;;4.97;1.00;;;1.00;99.90;;;;;;5089591;28;20060;-66
2021/04/12 03:33:57;;;;;;;7.07;0.88;;;1.00;99.90;;;;;;5089902;28;20067;-66
2021/04/12 03:36:26;;;;;;;6.47;0.93;;;1.00;99.90;;;;;;5087585;28;20070;-66
2021/04/12 03:39:08;;;;;;;5.00;1.27;;;1.00;99.90;;;;;;5090294;28;20038;-66
2021/04/12 03:42:18;;;;;;;4.00;1.08;;;1.00;99.90;;;;;;5088221;28;20081;-66
2021/04/12 03:44:47;;;;;;;3.30;1.00;;;1.00;99.90;;;;;;5058155;28;20079;-66
2021/04/12 03:47:31;;;;;;;4.78;0.77;;;1.00;99.90;;;;;;5090276;28;20093;-66
2021/04/12 03:50:28;;;;;;;5.25;0.95;;;1.00;99.90;;;;;;5089785;28;20048;-66
2021/04/12 03:53:31;;;;;;;4.82;1.00;;;1.00;99.90;;;;;;5087936;28;20382;-66
2021/04/12 03:56:00;;;;;;;5.80;1.30;;;1.00;99.90;;;;;;5089852;28;20047;-65
2021/04/12 03:59:03;;;;;;;5.63;0.77;;;0.90;99.90;;;;;;5089448;28;20147;-66
2021/04/12 04:01:29;;;;;;;4.55;1.05;;;0.90;99.90;;;;;;5088945;28;20504;-65
2021/04/12 04:04:27;;;;;;;2.88;0.95;;;1.60;99.90;;;;;;5089906;28;20036;-66
2021/04/12 04:07:01;;;;;;;3.42;0.82;;;0.90;99.90;;;;;;5089269;28;20032;-66
2021/04/12 04:09:54;;;;;;;2.97;0.70;;;0.90;99.90;;;;;;5089002;28;20044;-65
2021/04/12 04:12:34;;;;;;;5.68;0.70;;;0.90;99.90;;;;;;5091805;28;20048;-66
2021/04/12 04:15:21;;;;;;;4.32;1.63;;;0.90;99.90;;;;;;5092390;28;20043;-66
2021/04/12 04:18:08;;;;;;;4.47;0.90;;;0.90;99.90;;;;;;5091172;28;20101;-66
2021/04/12 04:21:01;;;;;;;6.38;0.90;;;0.90;99.90;;;;;;5092104;28;20058;-66
2021/04/12 04:23:56;;;;;;;4.15;0.65;;;0.90;99.90;;;;;;5091917;28;20036;-66
2021/04/12 04:26:34;;;;;;;2.72;0.80;;;0.90;99.90;;;;;;5091497;28;20028;-66
2021/04/12 04:29:23;;;;;;;3.42;0.95;;;0.90;99.90;;;;;;5091118;28;20097;-66
2021/04/12 04:32:19;;;;;;;3.78;0.70;;;0.90;99.90;;;;;;5085352;28;20055;-66
2021/04/12 04:34:57;;;;;;;6.30;0.75;;;0.90;99.90;;;;;;5090290;28;20439;-65
2021/04/12 04:37:37;;;;;;;2.90;0.70;;;0.90;99.90;;;;;;5092531;28;20423;-66
2021/04/12 04:40:42;;;;;;;2.17;0.80;;;1.20;99.90;;;;;;5092852;28;20078;-65
2021/04/12 04:43:22;;;;;;;6.65;0.70;;;1.00;99.90;;;;;;5090409;28;20044;-66
2021/04/12 04:46:17;;;;;;;2.50;0.60;;;1.00;99.90;;;;;;5094497;28;20497;-66
2021/04/12 04:48:48;;;;;;;4.63;1.00;;;1.10;99.90;;;;;;5093438;28;20050;-66
2021/04/12 04:51:42;;;;;;;2.45;0.80;;;1.10;99.90;;;;;;5093024;28;20044;-66
2021/04/12 04:54:49;;;;;;;2.92;0.60;;;1.10;99.90;;;;;;5090965;28;20101;-66
2021/04/12 04:57:36;;;;;;;4.22;1.05;;;1.10;99.90;;;;;;5089356;28;20416;-66
2021/04/12 05:00:25;;;;;;;2.78;0.73;;;1.10;99.90;;;;;;5082783;28;20035;-66
2021/04/12 05:03:24;;;;;;;3.75;0.77;;;1.10;99.90;;;;;;5088115;28;20288;-66
2021/04/12 05:06:08;;;;;;;4.68;1.02;;;1.00;99.90;;;;;;5089615;28;20047;-66
2021/04/12 05:09:08;;;;;;;4.90;1.00;;;1.00;99.90;;;;;;5082961;28;20479;-66
2021/04/12 05:12:08;;;;;;;3.33;0.90;;;1.00;99.90;;;;;;5083077;28;20051;-66
2021/04/12 05:14:49;;;;;;;4.72;0.93;;;1.00;99.90;;;;;;5085076;28;20088;-66
2021/04/12 05:17:38;;;;;;;4.45;0.75;;;1.10;99.90;;;;;;5091826;28;20040;-66
2021/04/12 05:20:12;;;;;;;5.63;1.05;;;1.20;99.90;;;;;;5090758;28;20040;-66
2021/04/12 05:22:41;;;;;;;3.15;0.73;;;1.40;99.90;;;;;;5087625;28;20406;-67
2021/04/12 05:25:32;;;;;;;3.15;0.60;;;1.80;99.90;;;;;;5087997;28;20969;-67
2021/04/12 05:28:22;;;;;;;4.45;0.60;;;2.70;99.90;;;;;;5089900;28;20380;-67
2021/04/12 05:30:55;;;;;;;2.72;0.40;;;3.70;99.90;;;;;;5090513;28;20070;-67
2021/04/12 05:33:57;;;;;;;7.90;0.75;;;4.60;99.10;;;;;;5090419;28;20490;-66
2021/04/12 05:36:42;;;;;;;5.40;1.20;;;5.40;97.60;;;;;;5088947;28;20036;-67
2021/04/12 05:39:23;;;;;;;2.47;0.52;;;6.00;96.00;;;;;;5091446;28;20044;-67
2021/04/12 05:42:01;;;;;;;2.92;0.60;;;6.40;94.90;;;;;;5085978;28;20035;-67
2021/04/12 05:44:47;;;;;;;2.95;0.43;;;6.90;94.30;;;;;;5089976;28;20039;-68
2021/04/12 05:47:39;;;;;;;3.50;0.73;;;7.20;93.50;;;;;;5088604;28;20051;-67
2021/04/12 05:50:30;;;;;;;1.02;0.30;;;7.60;92.00;;;;;;5091960;28;20046;-68
2021/04/12 05:53:14;;;;;;;6.25;0.40;;;7.90;92.10;;;;;;5090879;28;20040;-68
2021/04/12 05:56:00;;;;;;;5.78;0.98;;;8.90;90.50;;;;;;5088174;28;20095;-68
2021/04/12 05:58:41;;;;;;;2.30;0.30;;;8.50;90.90;;;;;;5091547;28;20036;-68
2021/04/12 06:01:16;;;;;;;4.07;0.60;;;8.70;90.40;;;;;;5087882;28;20036;-67
2021/04/12 06:04:06;;;;;;;1.60;0.30;;;8.90;89.80;;;;;;5088936;28;20040;-67
2021/04/12 06:07:05;;;;;;;2.85;0.57;;;9.00;89.20;;;;;;5089379;28;20099;-67
2021/04/12 06:09:34;;;;;;;2.13;0.30;;;9.30;87.00;;;;;;5088453;28;20044;-68
2021/04/12 06:12:09;;;;;;;1.35;0.30;;;9.40;86.30;;;;;;5088664;28;20050;-67
2021/04/12 06:15:11;;;;;;;1.95;0.90;;;9.40;84.10;;;;;;5093640;28;20039;-67
2021/04/12 06:18:05;;;;;;;1.75;0.30;;;9.60;85.00;;;;;;5090856;28;20188;-68
2021/04/12 06:20:49;;;;;;;3.05;0.30;;;9.80;83.80;;;;;;5089811;28;20099;-68
2021/04/12 06:23:46;;;;;;;1.85;0.30;;;10.00;81.90;;;;;;5091412;28;20498;-68
2021/04/12 06:26:14;;;;;;;;;;;10.10;80.30;;;;;;5093785;28;20448;-68
2021/04/12 06:28:52;;;;;;;2.38;0.35;;;10.30;78.80;;;;;;5092817;28;19923;-68
2021/04/12 06:31:52;;;;;;;3.55;0.43;;;10.40;77.40;;;;;;5092131;28;20032;-69
2021/04/12 06:34:46;;;;;;;3.40;0.52;;;10.40;76.60;;;;;;5089870;28;20417;-68
2021/04/12 06:37:20;;;;;;;2.28;0.30;;;10.50;76.50;;;;;;5089927;28;20032;-69
2021/04/12 06:40:31;;;;;;;3.72;0.60;;;10.40;78.60;;;;;;5089281;28;20043;-69
2021/04/12 06:43:05;;;;;;;1.83;0.28;;;10.60;78.10;;;;;;5084895;28;20040;-69
2021/04/12 06:46:09;;;;;;;3.17;0.47;;;10.80;79.20;;;;;;5088051;28;20089;-69
2021/04/12 06:48:38;;;;;;;3.17;0.60;;;10.70;76.30;;;;;;5090641;28;20563;-69
2021/04/12 06:51:31;;;;;;;5.65;0.30;;;10.80;77.60;;;;;;5092010;28;20047;-69
2021/04/12 06:54:19;;;;;;;2.35;0.80;;;10.90;76.30;;;;;;5090337;28;20102;-68
2021/04/12 06:57:03;;;;;;;4.15;0.40;;;11.10;76.00;;;;;;5085848;28;20036;-69
2021/04/12 06:59:38;;;;;;;2.22;0.43;;;11.20;75.70;;;;;;5087755;28;20054;-69
2021/04/12 07:02:25;;;;;;;2.42;0.45;;;11.40;75.70;;;;;;5088766;28;20050;-69
2021/04/12 07:05:10;;;;;;;7.35;0.63;;;11.50;74.60;;;;;;5087839;28;20044;-69
2021/04/12 07:08:14;;;;;;;2.35;0.40;;;11.80;73.90;;;;;;5088220;28;20040;-69
2021/04/12 07:11:24;;;;;;;3.03;0.60;;;11.70;72.20;;;;;;5090316;28;20043;-70
2021/04/12 07:14:13;;;;;;;3.85;0.70;;;11.70;72.00;;;;;;5070091;28;20104;-69
2021/04/12 07:16:39;;;;;;;1.63;0.40;;;11.70;70.40;;;;;;5087820;28;20687;-70
2021/04/12 07:19:24;;;;;;;4.43;0.43;;;12.10;71.30;;;;;;5088952;28;20383;-70
2021/04/12 07:22:18;;;;;;;3.25;0.40;;;12.40;68.60;;;;;;5086170;28;20050;-70
2021/04/12 07:24:48;;;;;;;6.50;0.40;;;12.60;69.40;;;;;;5084407;28;20063;-70
2021/04/12 07:27:46;;;;;;;3.65;0.32;;;12.80;70.70;;;;;;5087195;28;20036;-70
2021/04/12 07:30:49;;;;;;;2.75;0.38;;;12.30;72.40;;;;;;5087242;28;20666;-70
2021/04/12 07:33:32;;;;;;;5.20;0.75;;;12.00;70.70;;;;;;5086722;28;20059;-70
2021/04/12 07:36:11;;;;;;;7.03;0.52;;;11.80;69.60;;;;;;5086729;28;20052;-70
2021/04/12 07:39:11;;;;;;;2.85;0.43;;;11.70;72.60;;;;;;5117323;27;20089;-70
2021/04/12 07:42:18;;;;;;;8.85;0.60;;;11.50;72.70;;;;;;5089058;28;20044;-70
2021/04/12 07:45:36;;;;;;;3.00;0.50;;;11.40;70.80;;;;;;5086119;28;20119;-70
2021/04/12 07:48:58;;;;;;;5.60;0.65;;;11.40;75.70;;;;;;5070126;28;20052;-70
2021/04/12 07:51:43;;;;;;;5.22;0.50;;;11.80;70.80;;;;;;5022311;28;20049;-70
2021/04/12 07:54:36;;;;;;;4.03;0.77;;;12.00;73.40;;;;;;5101362;28;20059;-70
2021/04/12 07:57:11;;;;;;;3.25;0.60;;;12.50;68.70;;;;;;5079888;28;20040;-70
2021/04/12 08:00:02;;;;;;;6.45;1.30;;;13.00;68.50;;;;;;5083547;28;20041;-70
2021/04/12 08:03:05;;;;;;;2.72;0.50;;;13.30;65.60;;;;;;5081501;28;20024;-71
2021/04/12 08:05:45;;;;;;;4.03;0.50;;;13.30;62.00;;;;;;5086843;28;20047;-71
2021/04/12 08:08:34;;;;;;;4.85;0.65;;;13.70;60.80;;;;;;5087883;28;20044;-71
2021/04/12 08:11:27;;;;;;;5.78;0.95;;;13.60;59.20;;;;;;5088375;28;20075;-71
2021/04/12 08:14:18;;;;;;;3.40;0.52;;;13.90;61.00;;;;;;5081496;28;20048;-71
2021/04/12 08:17:07;;;;;;;6.50;1.00;;;13.90;59.80;;;;;;5087262;28;20075;-71
2021/04/12 08:20:11;;;;;;;4.72;0.88;;;13.60;61.00;;;;;;5087496;28;20046;-70
2021/04/12 08:23:35;;;;;;;2.10;0.50;;;13.30;59.40;;;;;;5060947;28;20049;-70
2021/04/12 08:26:16;;;;;;;3.75;0.60;;;13.70;59.40;;;;;;5041674;28;20058;-70
2021/04/12 08:28:59;;;;;;;6.60;0.52;;;12.90;60.50;;;;;;5044249;28;20120;-70
2021/04/12 08:32:03;;;;;;;6.00;0.60;;;12.00;62.10;;;;;;5080000;28;20111;-70
2021/04/12 08:34:38;;;;;;;4.22;0.70;;;11.40;64.40;;;;;;5086166;28;20056;-70
2021/04/12 08:37:25;;;;;;;8.73;0.60;;;10.80;64.90;;;;;;5087255;28;20039;-70
2021/04/12 08:40:09;;;;;;;3.72;0.40;;;10.20;66.30;;;;;;5088759;28;20040;-70
2021/04/12 08:42:53;;;;;;;5.13;0.70;;;10.30;71.60;;;;;;5088324;28;20036;-70
2021/04/12 08:45:58;;;;;;;3.63;0.50;;;10.60;68.70;;;;;;5086404;28;20139;-70
2021/04/12 08:48:52;;;;;;;4.97;0.50;;;10.80;71.50;;;;;;5087743;28;20054;-70
2021/04/12 08:51:55;;;;;;;5.97;0.57;;;10.90;66.70;;;;;;5088222;28;20482;-70
2021/04/12 08:54:41;;;;;;;2.63;0.40;;;11.00;64.60;;;;;;5084533;28;20667;-70
2021/04/12 08:57:36;;;;;;;5.47;0.38;;;10.90;65.70;;;;;;5066742;28;20048;-69
2021/04/12 09:00:08;;;;;;;5.55;0.73;;;10.50;63.90;;;;;;5088711;28;20048;-69
2021/04/12 09:02:57;;;;;;;6.97;0.47;;;10.40;67.10;;;;;;5092257;28;20122;-69
2021/04/12 09:05:35;;;;;;;4.05;0.43;;;10.60;66.30;;;;;;5072988;28;20089;-69
2021/04/12 09:08:18;;;;;;;3.05;0.30;;;10.70;63.00;;;;;;5090649;28;20134;-69
2021/04/12 09:11:16;;;;;;;2.28;0.30;;;10.90;63.50;;;;;;5091065;28;20490;-69
2021/04/12 09:14:12;;;;;;;3.75;0.57;;;11.00;62.90;;;;;;5066263;28;20059;-69
2021/04/12 09:16:50;;;;;;;3.47;0.82;;;11.20;68.50;;;;;;5090532;28;20044;-69
2021/04/12 09:19:38;;;;;;;4.30;0.70;;;10.90;65.20;;;;;;5101568;28;20115;-69
2021/04/12 09:22:53;;;;;;;4.88;0.57;;;11.00;67.10;;;;;;5092059;28;20044;-66
2021/04/12 09:25:51;;;;;;;3.90;0.25;;;11.10;67.40;;;;;;5093933;28;20040;-69
2021/04/12 09:28:53;;;;;;;2.97;0.75;;;11.20;69.80;;;;;;5090373;28;21653;-67
2021/04/12 09:31:32;;;;;;;1.95;0.22;;;11.30;72.50;;;;;;5093014;28;20044;-69
2021/04/12 09:34:41;;;;;;;4.05;0.73;;;11.00;74.80;;;;;;5093829;28;20048;-69
2021/04/12 09:37:46;;;;;;;2.55;0.30;;;10.80;74.90;;;;;;5088446;28;20043;-69
2021/04/12 09:40:51;;;;;;;0.98;0.30;;;10.20;73.90;;;;;;5087317;28;20069;-69
2021/04/12 09:43:38;;;;;;;2.03;0.40;;;9.70;76.50;;;;;;5067433;28;20070;-68
2021/04/12 09:46:18;;;;;;;3.42;0.47;;;9.20;75.80;;;;;;5094805;28;20036;-69
2021/04/12 09:49:03;;;;;;;3.15;0.40;;;9.10;77.50;;;;;;5093286;28;20044;-68
2021/04/12 09:52:05;;;;;;;3.13;0.30;;;9.10;81.60;;;;;;5094380;28;20044;-69
2021/04/12 09:55:04;;;;;;;2.33;0.52;;;9.10;80.10;;;;;;5031366;28;20033;-68
2021/04/12 09:57:57;;;;;;;3.15;0.47;;;9.10;82.50;;;;;;5093471;28;20123;-69
2021/04/12 10:00:39;;;;;;;4.30;0.63;;;9.40;79.90;;;;;;5088530;28;20085;-69
2021/04/12 10:03:43;;;;;;;1.15;0.30;;;9.60;76.60;;;;;;5085944;28;20036;-69
2021/04/12 10:06:31;;;;;;;4.18;0.40;;;9.60;72.50;;;;;;5085043;28;20059;-69
2021/04/12 10:09:16;;;;;;;2.85;0.40;;;9.80;78.10;;;;;;5085930;28;20040;-69
2021/04/12 10:12:25;;;;;;;3.80;0.30;;;9.80;72.10;;;;;;5081089;28;20066;-69
2021/04/12 10:15:15;;;;;;;6.03;0.30;;;9.60;68.30;;;;;;5087328;28;20047;-70
2021/04/12 10:17:47;;;;;;;2.83;0.40;;;9.40;70.80;;;;;;5084590;28;20053;-70
2021/04/12 10:20:20;;;;;;;1.85;0.20;;;9.10;66.90;;;;;;5085939;28;20551;-69
2021/04/12 10:22:57;;;;;;;2.00;0.30;;;9.30;71.70;;;;;;5088663;28;20047;-70
2021/04/12 10:25:34;;;;;;;2.33;0.30;;;9.60;74.40;;;;;;5088085;28;20036;-70
2021/04/12 10:28:11;;;;;;;4.53;0.30;;;9.50;70.50;;;;;;5084998;28;20062;-69
2021/04/12 10:30:50;;;;;;;1.30;0.20;;;9.40;69.30;;;;;;5085896;28;20036;-69
2021/04/12 10:33:49;;;;;;;4.47;0.40;;;9.10;67.00;;;;;;5084261;28;20121;-68
2021/04/12 10:36:26;;;;;;;2.22;0.40;;;9.20;72.20;;;;;;5083060;28;20044;-69
2021/04/12 10:39:01;;;;;;;5.10;1.52;;;9.30;74.00;;;;;;5087920;28;20486;-69
2021/04/12 10:41:34;;;;;;;1.92;0.40;;;9.60;72.60;;;;;;5087003;28;20129;-69
2021/04/12 10:44:29;;;;;;;2.80;0.30;;;9.90;72.00;;;;;;5081798;28;20060;-70
2021/04/12 10:47:03;;;;;;;1.35;0.20;;;9.40;75.30;;;;;;5089612;28;20391;-70
2021/04/12 10:49:57;;;;;;;3.80;0.22;;;9.20;78.60;;;;;;5091136;28;20052;-69
2021/04/12 10:52:33;;;;;;;2.40;0.28;;;8.90;81.60;;;;;;5089424;28;20414;-70
2021/04/12 10:55:15;;;;;;;2.22;0.55;;;8.70;84.30;;;;;;5090311;28;20036;-70
2021/04/12 10:58:19;;;;;;;3.92;0.50;;;8.50;88.80;;;;;;5087054;28;20114;-70
2021/04/12 11:00:48;;;;;;;2.33;0.50;;;8.20;90.00;;;;;;5086846;28;20052;-69
2021/04/12 11:03:30;;;;;;;0.88;0.10;;;7.80;90.30;;;;;;5089340;28;20039;-69
2021/04/12 11:06:19;;;;;;;2.78;0.30;;;7.60;90.80;;;;;;5085560;28;20573;-70
2021/04/12 11:08:47;;;;;;;0.77;0.10;;;7.30;90.60;;;;;;5088505;28;20044;-69
2021/04/12 11:11:16;;;;;;;3.58;0.60;;;7.30;91.70;;;;;;5087698;28;20056;-69
2021/04/12 11:13:42;;;;;;;4.20;0.20;;;7.30;93.20;;;;;;5083940;28;20047;-69
2021/04/12 11:16:18;;;;;;;0.82;0.10;;;7.50;92.80;;;;;;5088569;28;20164;-70
2021/04/12 11:19:03;;;;;;;2.40;0.55;;;7.60;92.40;;;;;;5086949;28;20127;-70
2021/04/12 11:21:39;;;;;;;5.22;0.30;;;7.80;92.30;;;;;;5085432;28;20047;-70
2021/04/12 11:24:08;;;;;;;;;;;8.00;90.90;;;;;;5089621;28;20043;-70
2021/04/12 11:26:59;;;;;;;1.13;0.20;;;8.10;91.20;;;;;;5085525;28;19926;-70
2021/04/12 11:29:31;;;;;;;0.73;0.20;;;8.20;90.30;;;;;;5086930;28;20051;-70
2021/04/12 11:32:14;;;;;;;3.10;0.20;;;8.10;89.30;;;;;;5087607;28;20040;-70
2021/04/12 11:34:55;;;;;;;1.08;0.20;;;8.10;90.00;;;;;;5087333;28;20185;-70
2021/04/12 11:37:33;;;;;;;3.22;0.20;;;8.10;90.50;;;;;;5088726;28;20059;-70
2021/04/12 11:40:09;;;;;;;3.17;0.80;;;8.20;90.20;;;;;;5086734;28;20032;-70
2021/04/12 11:42:40;;;;;;;1.38;0.30;;;8.30;88.60;;;;;;5084732;28;20048;-70
2021/04/12 11:45:06;;;;;;;2.28;0.20;;;8.50;90.40;;;;;;5085958;28;20035;-70
2021/04/12 11:47:58;;;;;;;1.50;0.22;;;8.70;88.20;;;;;;5086989;28;20164;-70
2021/04/12 11:50:30;;;;;;;1.52;0.30;;;8.90;90.40;;;;;;5088110;28;20048;-70
2021/04/12 11:53:43;;;;;;;0.85;0.10;;;8.70;88.90;;;;;;5089293;28;20051;-70
2021/04/12 11:56:30;;;;;;;1.55;0.25;;;8.50;82.40;;;;;;5082373;28;20470;-70
2021/04/12 11:59:08;;;;;;;1.30;0.13;;;8.30;83.70;;;;;;5087294;28;20043;-70
2021/04/12 12:01:39;;;;;;;0.35;0.10;;;8.30;81.00;;;;;;5087602;28;20047;-70
2021/04/12 12:04:32;;;;;;;1.70;0.00;;;8.40;84.30;;;;;;5088680;28;20028;-70
2021/04/12 12:07:18;;;;;;;0.15;0.10;;;8.70;86.90;;;;;;5089574;28;20052;-70
2021/04/12 12:09:51;;;;;;;1.20;0.28;;;9.00;80.80;;;;;;5088081;28;20036;-70
2021/04/12 12:12:39;;;;;;;0.90;0.10;;;9.30;75.90;;;;;;5088886;28;20048;-70
2021/04/12 12:15:05;;;;;;;1.70;0.10;;;9.50;80.80;;;;;;5090932;28;20040;-70
2021/04/12 12:17:57;;;;;;;3.25;0.52;;;9.80;81.80;;;;;;5090063;28;20093;-70
2021/04/12 12:20:30;;;;;;;0.57;0.17;;;9.90;77.10;;;;;;5085073;28;20148;-70
2021/04/12 12:23:22;;;;;;;3.00;0.20;;;10.00;77.10;;;;;;5090727;28;20997;-70
2021/04/12 12:25:52;;;;;;;1.63;0.20;;;10.20;78.50;;;;;;5087811;28;20040;-70
2021/04/12 12:28:48;;;;;;;1.50;0.20;;;10.00;76.70;;;;;;5085143;28;20046;-70
2021/04/12 12:31:35;;;;;;;3.40;0.20;;;9.60;78.30;;;;;;5088455;28;20040;-70
2021/04/12 12:34:10;;;;;;;1.33;0.20;;;8.90;79.60;;;;;;5120768;27;20028;-70
2021/04/12 12:36:46;;;;;;;1.55;0.10;;;8.40;85.60;;;;;;5105482;28;20039;-70
2021/04/12 12:39:37;;;;;;;0.43;0.10;;;8.20;85.50;;;;;;5086801;28;20465;-70
2021/04/12 12:42:14;;;;;;;2.03;0.13;;;8.10;90.40;;;;;;5091640;28;20127;-70
2021/04/12 12:44:43;;;;;;;1.35;0.13;;;7.80;89.60;;;;;;5090534;28;20385;-70
2021/04/12 12:47:25;;;;;;;3.35;0.40;;;7.80;90.20;;;;;;5122532;27;20035;-70
2021/04/12 12:49:57;;;;;;;2.47;0.28;;;7.80;89.50;;;;;;5086182;28;20474;-70
2021/04/12 12:52:26;;;;;;;1.65;0.20;;;7.80;90.40;;;;;;5090062;28;20413;-70
2021/04/12 12:54:55;;;;;;;4.25;0.20;;;7.80;89.50;;;;;;5090144;28;20046;-70
2021/04/12 12:57:34;;;;;;;1.42;0.20;;;8.00;91.90;;;;;;5088704;28;20051;-70
2021/04/12 13:00:37;;;;;;;1.38;0.30;;;8.30;91.70;;;;;;5086407;28;20043;-69
2021/04/12 13:03:27;;;;;;;2.70;0.32;;;8.30;89.40;;;;;;5087823;28;20055;-70
2021/04/12 13:05:54;;;;;;;5.93;0.30;;;8.50;90.20;;;;;;5089012;28;20494;-70
2021/04/12 13:08:25;;;;;;;1.40;0.30;;;8.50;90.00;;;;;;5089995;28;20052;-70
2021/04/12 13:10:53;;;;;;;1.13;0.15;;;8.40;85.80;;;;;;5091253;28;20040;-70
2021/04/12 13:13:31;;;;;;;2.30;0.40;;;8.20;86.40;;;;;;5092610;28;20131;-69
2021/04/12 13:16:12;;;;;;;0.50;0.10;;;8.20;87.00;;;;;;5090725;28;20040;-70
2021/04/12 13:18:41;;;;;;;3.67;0.20;;;8.30;89.50;;;;;;5091155;28;20067;-70
2021/04/12 13:21:22;;;;;;;1.20;0.20;;;8.60;90.70;;;;;;5089247;28;20390;-69
2021/04/12 13:23:48;;;;;;;2.83;0.38;;;8.80;90.20;;;;;;5089745;28;20051;-69
2021/04/12 13:26:37;;;;;;;2.15;0.22;;;8.80;89.70;;;;;;5092964;28;20064;-70
2021/04/12 13:29:24;;;;;;;2.25;0.30;;;8.80;88.60;;;;;;5090416;28;20032;-70
2021/04/12 13:32:22;;;;;;;1.65;0.20;;;9.10;89.20;;;;;;5091561;28;20081;-70
2021/04/12 13:34:50;;;;;;;2.47;0.38;;;9.20;88.50;;;;;;5087019;28;20173;-70
2021/04/12 13:37:20;;;;;;;4.43;0.20;;;8.90;85.70;;;;;;5092081;28;20040;-69
2021/04/12 13:40:03;;;;;;;5.30;0.40;;;8.80;85.10;;;;;;5089689;28;20044;-69
2021/04/12 13:42:46;;;;;;;2.65;0.30;;;8.60;84.30;;;;;;5091964;28;20040;-69
2021/04/12 13:45:13;;;;;;;5.03;0.40;;;8.50;84.70;;;;;;5090178;28;20105;-69
2021/04/12 13:47:49;;;;;;;0.95;0.10;;;8.30;85.10;;;;;;5091142;28;20129;-69
2021/04/12 13:50:32;;;;;;;0.40;0.10;;;8.20;83.40;;;;;;5090091;28;20040;-70
2021/04/12 13:53:13;;;;;;;1.40;0.15;;;7.90;83.80;;;;;;5089401;28;20093;-69
2021/04/12 13:56:02;;;;;;;0.85;0.10;;;8.30;85.40;;;;;;5091120;28;20063;-69
2021/04/12 13:58:32;;;;;;;1.83;0.28;;;8.20;86.90;;;;;;5089632;28;20964;-69
2021/04/12 14:01:11;;;;;;;3.13;0.30;;;8.30;85.00;;;;;;5089797;28;20048;-69
2021/04/12 14:04:03;;;;;;;1.95;0.20;;;8.60;85.90;;;;;;5089622;28;20047;-69
2021/04/12 14:06:40;;;;;;;1.60;0.10;;;8.80;83.70;;;;;;5088837;28;20052;-69
2021/04/12 14:09:15;;;;;;;2.85;0.20;;;8.80;82.00;;;;;;5088784;28;20078;-69
2021/04/12 14:11:51;;;;;;;0.87;0.20;;;8.60;77.90;;;;;;5089729;28;20482;-69
2021/04/12 14:14:23;;;;;;;3.35;1.40;;;8.40;84.00;;;;;;5088406;28;20290;-69
2021/04/12 14:17:02;;;;;;;2.42;0.20;;;8.40;85.50;;;;;;5088940;28;20040;-69
2021/04/12 14:19:46;;;;;;;1.95;0.20;;;8.50;84.80;;;;;;5090579;28;20394;-69
2021/04/12 14:22:23;;;;;;;2.65;0.35;;;8.30;84.10;;;;;;5088614;28;20429;-69
2021/04/12 14:25:00;;;;;;;1.80;0.25;;;8.30;81.30;;;;;;5089240;28;20110;-69
2021/04/12 14:27:32;;;;;;;2.47;0.17;;;8.20;81.10;;;;;;5089994;28;20067;-69
2021/04/12 14:30:06;;;;;;;2.92;0.30;;;8.10;81.50;;;;;;5086553;28;20103;-69
2021/04/12 14:32:38;;;;;;;4.43;0.30;;;8.00;82.50;;;;;;5089463;28;20032;-69